Time;durP1;ratioP1;P1;durP2;ratioP2;P2;SDS_P1;SDS_P2;PMS_P1;PMS_P2;Temp;Humidity;BMP_temperature;BMP_pressure;BME280_temperature;BME280_humidity;BME280_pressure;Samples;Min_cycle;Max_cycle;Signal;HPM_P1;HPM_P2
2021/10/14 00:04:53;;;;;;;20.88;10.95;;;;;;;6.04;94.44;101598.63;20741874;28;20033;-68
2021/10/14 00:14:54;;;;;;;21.67;11.95;;;;;;;6.10;94.34;101590.97;20739277;28;20049;-69
2021/10/14 00:24:56;;;;;;;20.38;11.07;;;;;;;6.13;94.30;101589.31;20739758;28;20054;-68
2021/10/14 00:34:57;;;;;;;20.65;11.90;;;;;;;6.20;93.83;101592.03;20738296;28;20451;-69
2021/10/14 00:45:00;;;;;;;20.80;11.30;;;;;;;6.17;93.96;101582.44;20738161;28;20096;-69
2021/10/14 00:55:02;;;;;;;20.55;11.55;;;;;;;6.11;94.38;101590.09;20737200;28;20050;-68
2021/10/14 01:05:05;;;;;;;21.08;11.13;;;;;;;6.01;94.46;101585.56;20736354;28;20655;-68
2021/10/14 01:15:24;;;;;;;18.25;11.32;;;;;;;6.01;94.41;101588.16;20736448;28;20050;-69
2021/10/14 01:25:25;;;;;;;20.17;11.45;;;;;;;5.91;95.77;101558.44;20735659;28;20141;-68
2021/10/14 01:35:27;;;;;;;20.90;12.20;;;;;;;5.86;95.23;101547.06;20733103;28;20111;-69
2021/10/14 01:45:28;;;;;;;17.42;10.88;;;;;;;5.74;95.74;101544.19;20734666;28;20050;-69
2021/10/14 01:55:30;;;;;;;20.33;10.55;;;;;;;5.60;95.75;101539.56;20734702;28;20107;-69
2021/10/14 02:05:32;;;;;;;17.05;9.93;;;;;;;5.48;95.58;101546.22;20733340;28;20046;-69
2021/10/14 02:15:33;;;;;;;22.95;12.10;;;;;;;5.46;96.26;101559.16;20735574;28;20082;-69
2021/10/14 02:25:35;;;;;;;25.58;12.45;;;;;;;5.40;95.76;101565.06;20738126;28;20054;-69
2021/10/14 02:35:36;;;;;;;23.33;12.52;;;;;;;5.32;95.76;101571.81;20731045;28;20119;-69
2021/10/14 02:45:38;;;;;;;27.98;13.50;;;;;;;5.23;95.60;101561.19;20733549;28;20045;-69
2021/10/14 02:55:39;;;;;;;22.42;13.20;;;;;;;5.23;95.51;101570.72;20747495;28;20460;-69
2021/10/14 03:05:41;;;;;;;24.85;13.05;;;;;;;5.15;95.69;101567.91;20745565;28;20466;-68
2021/10/14 03:15:42;;;;;;;23.45;12.50;;;;;;;5.04;95.62;101551.19;20745026;28;20108;-68
2021/10/14 03:25:44;;;;;;;24.55;11.95;;;;;;;5.00;96.03;101541.56;20744227;28;20081;-68
2021/10/14 03:35:45;;;;;;;22.27;12.80;;;;;;;4.99;95.63;101555.41;20741438;28;20066;-68
2021/10/14 03:45:47;;;;;;;23.17;13.02;;;;;;;4.91;95.64;101572.47;20741860;28;20054;-69
2021/10/14 03:55:48;;;;;;;26.92;15.60;;;;;;;4.89;95.05;101577.66;20741863;28;20393;-68
2021/10/14 04:05:50;;;;;;;28.30;15.90;;;;;;;4.89;94.82;101583.72;20740753;28;20462;-68
2021/10/14 04:15:51;;;;;;;33.75;16.30;;;;;;;4.97;94.86;101578.69;20738436;28;20050;-68
2021/10/14 04:25:53;;;;;;;29.73;15.75;;;;;;;5.00;95.03;101578.78;20738600;28;20487;-68
2021/10/14 04:36:03;;;;;;;29.20;16.50;;;;;;;4.99;95.33;101576.16;20737505;28;20152;-68
2021/10/14 04:46:04;;;;;;;29.80;16.77;;;;;;;4.92;94.75;101582.03;20743318;28;20533;-68
2021/10/14 04:56:06;;;;;;;27.00;15.88;;;;;;;4.95;94.38;101582.13;20738801;28;20061;-68
2021/10/14 05:06:08;;;;;;;25.90;15.25;;;;;;;4.99;94.83;101586.53;20736678;28;20096;-69
2021/10/14 05:16:09;;;;;;;26.52;15.52;;;;;;;4.94;94.33;101578.63;20733145;28;20112;-68
2021/10/14 05:26:11;;;;;;;26.73;15.25;;;;;;;4.85;94.34;101578.41;20735755;28;20056;-69
2021/10/14 05:36:13;;;;;;;22.98;13.80;;;;;;;4.82;94.46;101584.38;20733602;28;20049;-69
2021/10/14 05:46:14;;;;;;;23.67;13.90;;;;;;;4.73;94.69;101580.66;20734520;28;20487;-69
2021/10/14 05:56:16;;;;;;;29.85;16.10;;;;;;;4.67;95.40;101589.16;20734878;28;20614;-69
2021/10/14 06:06:17;;;;;;;28.92;15.63;;;;;;;4.63;94.42;101583.00;20733586;28;20046;-70
2021/10/14 06:16:19;;;;;;;26.35;13.65;;;;;;;4.70;94.63;101578.88;20733014;28;20050;-68
2021/10/14 06:26:20;;;;;;;24.77;13.93;;;;;;;4.74;94.80;101579.81;20745031;28;20056;-68
2021/10/14 06:36:23;;;;;;;20.48;11.60;;;;;;;4.88;93.46;101584.53;20746250;28;20050;-68
2021/10/14 06:46:24;;;;;;;20.95;10.93;;;;;;;5.11;93.10;101586.84;20747443;28;20556;-69
2021/10/14 06:56:26;;;;;;;23.17;11.65;;;;;;;5.26;93.00;101595.00;20747131;28;20491;-68
2021/10/14 07:06:27;;;;;;;21.55;10.95;;;;;;;5.75;91.80;101598.81;20822075;28;20042;-68
2021/10/14 07:16:29;;;;;;;18.10;10.05;;;;;;;5.97;91.53;101595.00;20821177;28;20053;-67
2021/10/14 07:26:30;;;;;;;19.30;9.55;;;;;;;6.15;91.18;101599.72;20819139;28;20874;-67
2021/10/14 07:36:32;;;;;;;16.85;8.85;;;;;;;6.37;90.02;101606.25;20815374;28;20707;-67
2021/10/14 07:46:34;;;;;;;17.35;9.45;;;;;;;6.50;89.93;101602.19;20817822;28;20561;-67
2021/10/14 07:56:38;;;;;;;16.52;8.65;;;;;;;6.74;89.06;101605.25;20817378;28;20071;-67
2021/10/14 08:06:40;;;;;;;16.05;9.02;;;;;;;7.14;88.54;101600.81;20816030;28;20548;-68
2021/10/14 08:16:41;;;;;;;17.75;10.02;;;;;;;7.53;88.50;101594.50;20815834;28;20184;-70
2021/10/14 08:26:43;;;;;;;15.60;9.43;;;;;;;8.09;87.08;101597.06;20814404;28;20049;-70
2021/10/14 08:36:44;;;;;;;17.50;10.15;;;;;;;7.91;88.08;101598.56;20757387;28;20708;-70
2021/10/14 08:46:47;;;;;;;19.15;10.45;;;;;;;8.32;87.13;101605.19;20729735;28;20540;-70
2021/10/14 08:56:49;;;;;;;17.42;10.77;;;;;;;8.20;88.16;101580.72;20730970;28;20049;-70
2021/10/14 09:06:55;;;;;;;23.02;11.02;;;;;;;8.33;87.31;101579.09;20729386;28;20046;-70
2021/10/14 09:16:57;;;;;;;20.67;10.13;;;;;;;8.51;86.96;101575.00;20788049;28;20123;-70
2021/10/14 09:27:01;;;;;;;19.20;9.90;;;;;;;8.80;86.71;101568.38;20810648;28;20046;-71
2021/10/14 09:37:26;;;;;;;18.20;11.13;;;;;;;9.29;84.33;101576.66;20811797;28;20053;-71
2021/10/14 09:47:28;;;;;;;19.00;9.13;;;;;;;9.85;80.75;101573.59;20813930;28;20387;-71
2021/10/14 09:57:29;;;;;;;15.68;8.68;;;;;;;10.11;80.62;101560.66;20814821;28;20053;-71
2021/10/14 10:07:31;;;;;;;15.70;8.27;;;;;;;10.70;79.66;101546.91;20824495;28;20049;-71
2021/10/14 10:17:36;;;;;;;13.32;7.50;;;;;;;11.09;77.52;101536.50;20760691;28;20104;-71
2021/10/14 10:27:37;;;;;;;13.93;6.78;;;;;;;11.50;75.21;101529.47;20741187;28;20170;-71
2021/10/14 10:37:44;;;;;;;12.63;6.35;;;;;;;11.72;74.23;101537.28;20740112;28;20124;-71
2021/10/14 10:47:48;;;;;;;11.18;5.85;;;;;;;11.79;75.42;101523.31;20740867;28;20052;-72
2021/10/14 10:57:51;;;;;;;10.68;6.03;;;;;;;11.88;73.70;101506.66;20740719;28;20054;-72
2021/10/14 11:08:10;;;;;;;10.52;5.07;;;;;;;12.14;74.36;101498.69;20737903;28;20046;-73
2021/10/14 11:18:12;;;;;;;15.77;6.22;;;;;;;12.58;71.89;101480.94;20807437;28;20065;-72
2021/10/14 11:28:14;;;;;;;12.57;5.13;;;;;;;12.79;72.23;101471.13;20820008;28;20052;-73
2021/10/14 11:38:23;;;;;;;9.18;5.30;;;;;;;12.82;70.71;101458.00;20818611;28;20083;-73
2021/10/14 11:48:34;;;;;;;12.40;5.43;;;;;;;12.71;70.59;101442.31;20816879;28;20045;-74
2021/10/14 11:58:36;;;;;;;9.38;4.75;;;;;;;12.81;70.71;101422.09;20818006;28;20053;-74
2021/10/14 12:08:37;;;;;;;8.88;4.85;;;;;;;12.95;70.84;101421.97;20816228;28;20100;-74
2021/10/14 12:18:40;;;;;;;10.15;4.35;;;;;;;13.18;70.24;101409.47;20748937;28;20390;-73
2021/10/14 12:28:43;;;;;;;8.32;4.60;;;;;;;13.42;68.50;101408.38;20733530;28;20096;-73
2021/10/14 12:38:46;;;;;;;7.95;4.13;;;;;;;13.65;67.67;101391.41;20731516;28;20046;-75
2021/10/14 12:48:57;;;;;;;11.82;4.80;;;;;;;13.77;67.40;101380.75;20732048;28;20054;-74
2021/10/14 12:59:03;;;;;;;9.50;4.20;;;;;;;13.87;67.18;101363.94;20731425;28;20606;-74
2021/10/14 13:09:05;;;;;;;9.68;3.90;;;;;;;13.92;67.36;101356.84;20720251;28;20046;-74
2021/10/14 13:19:09;;;;;;;7.05;3.35;;;;;;;13.80;67.53;101338.59;20726935;28;20053;-73
2021/10/14 13:29:11;;;;;;;9.93;3.47;;;;;;;13.82;66.52;101324.50;20728170;28;20082;-70
2021/10/14 13:39:16;;;;;;;10.18;4.03;;;;;;;13.91;66.01;101312.97;20726710;28;20062;-70
2021/10/14 13:49:18;;;;;;;6.72;3.50;;;;;;;13.88;66.62;101297.22;20727363;28;20054;-72
2021/10/14 13:59:19;;;;;;;8.23;3.33;;;;;;;13.92;65.61;101283.13;20727370;28;20426;-69
2021/10/14 14:09:21;;;;;;;9.00;3.40;;;;;;;13.91;65.74;101278.75;20725307;28;20046;-69
2021/10/14 14:19:24;;;;;;;8.07;3.17;;;;;;;13.94;66.21;101269.91;20819170;28;20057;-70
2021/10/14 14:29:26;;;;;;;10.00;3.03;;;;;;;13.82;65.94;101252.56;20806820;28;20049;-69
2021/10/14 14:39:27;;;;;;;8.50;3.15;;;;;;;13.87;66.01;101242.84;20806460;28;20045;-69
2021/10/14 14:49:29;;;;;;;8.88;3.85;;;;;;;13.76;66.26;101239.50;20819440;28;20045;-70
2021/10/14 14:59:30;;;;;;;11.63;3.88;;;;;;;13.76;66.84;101234.25;20819978;28;20498;-72
2021/10/14 15:09:32;;;;;;;5.85;3.17;;;;;;;13.59;67.81;101230.09;20820202;28;20045;-70
2021/10/14 15:19:33;;;;;;;9.63;3.05;;;;;;;13.59;66.67;101223.97;20738828;28;20491;-71
2021/10/14 15:29:35;;;;;;;11.40;4.95;;;;;;;13.50;67.36;101214.44;20736154;28;20045;-69
2021/10/14 15:39:39;;;;;;;6.90;3.47;;;;;;;13.28;68.38;101211.25;20735554;28;20061;-72
2021/10/14 15:49:40;;;;;;;8.00;3.80;;;;;;;13.08;68.99;101210.63;20734059;28;20054;-69
2021/10/14 15:59:42;;;;;;;7.90;3.22;;;;;;;12.72;71.53;101206.69;20732711;28;20404;-69
2021/10/14 16:09:44;;;;;;;7.95;4.15;;;;;;;12.43;73.18;101210.50;20732331;28;20112;-71
2021/10/14 16:19:45;;;;;;;7.15;3.70;;;;;;;12.16;74.17;101200.25;20814926;28;20543;-69
2021/10/14 16:29:47;;;;;;;8.48;4.20;;;;;;;11.90;74.61;101197.88;20811187;28;20084;-71
2021/10/14 16:39:49;;;;;;;9.13;3.95;;;;;;;11.52;79.34;101197.25;20812260;28;20560;-70
2021/10/14 16:49:50;;;;;;;8.85;5.35;;;;;;;11.17;80.92;101191.38;20810903;28;20486;-70
2021/10/14 16:59:52;;;;;;;10.10;5.70;;;;;;;10.83;83.49;101188.91;20798824;28;20079;-72
2021/10/14 17:09:55;;;;;;;9.85;6.40;;;;;;;10.52;85.64;101195.97;20728421;28;20120;-69
2021/10/14 17:40:32;;;;;;;16.63;10.00;;;;;;;10.03;85.90;101199.53;20726993;28;20099;-69
2021/10/14 17:50:34;;;;;;;14.25;8.60;;;;;;;9.81;86.02;101192.56;20786930;28;20049;-70
2021/10/14 18:00:36;;;;;;;18.45;11.27;;;;;;;9.67;87.26;101191.66;20810751;28;20052;-73
2021/10/14 18:41:38;;;;;;;31.90;20.40;;;;;;;8.97;88.43;101156.72;20820830;28;20061;-69
2021/10/14 18:51:41;;;;;;;33.67;19.63;;;;;;;8.81;89.08;101157.50;20821538;28;20103;-68
2021/10/14 19:01:43;;;;;;;24.95;14.10;;;;;;;8.71;89.34;101147.91;20832360;28;20053;-68
2021/10/14 19:23:01;;;;;;;30.17;16.65;;;;;;;8.36;89.69;101138.19;20817982;28;20045;-69
2021/10/14 20:24:23;;;;;;;10.75;5.25;;;;;;;7.34;91.01;101127.88;20814324;28;20049;-70
2021/10/14 20:34:30;;;;;;;13.60;8.50;;;;;;;7.21;91.63;101126.00;20813394;28;20095;-70
2021/10/14 20:44:31;;;;;;;11.10;7.47;;;;;;;7.09;91.29;101118.06;20812587;28;20088;-70
2021/10/14 20:54:48;;;;;;;12.70;6.78;;;;;;;6.99;91.58;101109.28;20810887;28;20099;-72
2021/10/14 21:04:51;;;;;;;12.70;6.75;;;;;;;6.92;91.91;101103.16;20807787;28;20091;-70
2021/10/14 21:14:52;;;;;;;14.63;7.28;;;;;;;6.84;91.89;101093.50;20811327;28;20115;-72
2021/10/14 21:24:54;;;;;;;17.92;10.05;;;;;;;6.67;90.78;101091.59;20810502;28;20057;-71
2021/10/14 21:45:15;;;;;;;35.75;18.88;;;;;;;6.47;90.86;101081.81;20809385;28;20094;-70
2021/10/14 21:55:18;;;;;;;35.72;19.63;;;;;;;6.37;90.58;101067.81;20824426;28;20403;-70
2021/10/14 22:05:21;;;;;;;23.33;12.48;;;;;;;6.29;90.93;101077.28;20827804;28;20049;-70
2021/10/14 22:15:23;;;;;;;21.10;11.88;;;;;;;6.19;91.04;101060.69;20832989;28;20054;-69
2021/10/14 22:25:24;;;;;;;20.80;11.30;;;;;;;6.09;90.28;101053.63;20831736;28;20060;-72
2021/10/14 22:35:26;;;;;;;24.17;13.82;;;;;;;6.01;90.37;101035.31;20830944;28;20494;-70
2021/10/14 22:45:28;;;;;;;20.92;10.85;;;;;;;5.95;90.76;101023.97;20830010;28;20057;-73
2021/10/14 22:55:29;;;;;;;18.52;9.93;;;;;;;5.84;90.84;101001.25;20829702;28;20053;-70
2021/10/14 23:05:31;;;;;;;25.45;12.88;;;;;;;5.72;90.63;100985.53;20829383;28;20461;-70
2021/10/14 23:15:32;;;;;;;24.95;12.27;;;;;;;5.66;90.68;100980.25;20827978;28;20099;-71
2021/10/14 23:25:34;;;;;;;23.25;10.57;;;;;;;5.59;90.77;100975.81;20827459;28;20064;-70
2021/10/14 23:35:35;;;;;;;22.77;10.57;;;;;;;5.47;90.95;100960.94;20825991;28;20206;-69
2021/10/14 23:45:37;;;;;;;20.80;10.63;;;;;;;5.42;91.38;100953.94;20826070;28;20045;-70
2021/10/14 23:55:38;;;;;;;17.73;9.63;;;;;;;5.36;91.25;100933.94;20825578;28;20103;-71
